Aviation Digital Data Service (ADDS)

Output produced by METARs form (1116 UTC 24 April 2017)
found at http://www.aviationweather.gov/adds/metars/
 
TAF MZBZ 241045Z 2412/2512 32007KT 9999 SCT022 
     BECMG 2420/2422 11006KT 
     BECMG 2504/2506 18004KT
       
TAF MZBZ 241045Z 2412/2512 32007KT 9999 SCT022 
     BECMG 2420/2422 11006KT 
     BECMG 2504/2506 18004KT